LFRN/RNS METAR and TAF weather

Enter ICAO airport designator
Station Type Date Time Source
LFRN METAR 2019/02/18 04:00 UTC NOAA

LFRN 180400Z AUTO 11002KT 0350 0300 R28L/0325N R10R/0400N FG VV/// 06/06 Q1017 BECMG 3000 BR BKN003


Station Type Date Time Source
LFRN Decoded METAR 2019/02/18 04:00 UTC NOAA

Rennes, France (LFRN) 48-04N 001-44W 37M
Feb 17, 2019 - 11:00 PM EST / 2019.02.18 0400 UTC
Wind: from the ESE (110 degrees) at 2 MPH (2 KT):0
Visibility: less than 1 mile:0
Sky conditions: obscured
Weather: fog
Temperature: 42 F (6 C)
Dew Point: 42 F (6 C)
Relative Humidity: 100%
Pressure (altimeter): 30.03 in. Hg (1017 hPa)
ob: LFRN 180400Z AUTO 11002KT 0350 0300 R28L/0325N R10R/0400N FG VV/// 06/06 Q1017 BECMG 3000 BR BKN003
cycle: 4

Station Type Date Time Source
LFRN TAF 2019/02/18 02:54 UTC NOAA

TAF
AMD TAF
AMD LFRN 180248Z 1802/1824 VRB03KT 3000 BR BKN003
TEMPO 1802/1805 0400 FG VV///
BECMG 1808/1810 9999 NSW BKN005
BECMG 1810/1812 BKN010
TEMPO 1814/1818 5000 RADZ
BECMG 1818/1820 BKN030
BECMG 1821/1824 BKN005


Example: see airport list